sensor_id;sensor_type;location;lat;lon;timestamp;noise_LAeq;noise_LA_min;noise_LA_max;noise_LA01;noise_LA95
46584;Laerm;32309;48.858;8.252;2023-04-07T00:00:56;41.27;36.69;44.79;;
46584;Laerm;32309;48.858;8.252;2023-04-07T00:02:56;41.14;36.45;44.58;;
46584;Laerm;32309;48.858;8.252;2023-04-07T00:04:57;42.05;38.81;45.60;;
46584;Laerm;32309;48.858;8.252;2023-04-07T00:06:58;41.96;38.02;46.52;;
46584;Laerm;32309;48.858;8.252;2023-04-07T00:10:58;41.92;38.37;45.36;;
46584;Laerm;32309;48.858;8.252;2023-04-07T00:12:58;42.35;37.88;53.95;;
46584;Laerm;32309;48.858;8.252;2023-04-07T00:16:59;42.10;38.05;45.42;;
46584;Laerm;32309;48.858;8.252;2023-04-07T00:19:00;41.64;37.12;45.14;;
46584;Laerm;32309;48.858;8.252;2023-04-07T00:21:00;41.65;37.32;44.94;;
46584;Laerm;32309;48.858;8.252;2023-04-07T00:25:00;41.65;38.05;44.43;;
46584;Laerm;32309;48.858;8.252;2023-04-07T00:27:01;41.12;37.32;45.77;;
46584;Laerm;32309;48.858;8.252;2023-04-07T00:29:01;41.91;38.95;45.48;;
46584;Laerm;32309;48.858;8.252;2023-04-07T00:31:01;40.67;37.32;43.34;;
46584;Laerm;32309;48.858;8.252;2023-04-07T00:35:02;40.53;37.12;45.14;;
46584;Laerm;32309;48.858;8.252;2023-04-07T00:37:02;40.56;34.31;43.29;;
46584;Laerm;32309;48.858;8.252;2023-04-07T00:39:05;41.65;37.70;45.01;;
46584;Laerm;32309;48.858;8.252;2023-04-07T00:41:05;40.22;35.94;42.71;;
46584;Laerm;32309;48.858;8.252;2023-04-07T00:43:06;40.92;37.12;45.39;;
46584;Laerm;32309;48.858;8.252;2023-04-07T00:45:06;40.49;35.36;45.86;;
46584;Laerm;32309;48.858;8.252;2023-04-07T00:47:07;40.83;36.45;48.13;;
46584;Laerm;32309;48.858;8.252;2023-04-07T00:51:07;41.25;37.12;44.35;;
46584;Laerm;32309;48.858;8.252;2023-04-07T00:53:08;41.19;37.52;44.43;;
46584;Laerm;32309;48.858;8.252;2023-04-07T00:55:08;41.34;37.12;44.80;;
46584;Laerm;32309;48.858;8.252;2023-04-07T00:57:08;40.88;36.91;43.72;;
46584;Laerm;32309;48.858;8.252;2023-04-07T00:59:09;40.78;36.91;44.39;;
46584;Laerm;32309;48.858;8.252;2023-04-07T01:01:18;40.50;36.69;44.51;;
46584;Laerm;32309;48.858;8.252;2023-04-07T01:03:33;40.86;35.66;47.74;;
46584;Laerm;32309;48.858;8.252;2023-04-07T01:05:41;40.96;36.69;43.72;;
46584;Laerm;32309;48.858;8.252;2023-04-07T01:12:18;41.18;36.91;46.91;;
46584;Laerm;32309;48.858;8.252;2023-04-07T01:14:23;40.70;37.12;46.20;;
46584;Laerm;32309;48.858;8.252;2023-04-07T01:16:41;41.18;37.32;45.01;;
46584;Laerm;32309;48.858;8.252;2023-04-07T01:20:48;41.14;37.12;44.87;;
46584;Laerm;32309;48.858;8.252;2023-04-07T01:22:57;41.09;37.12;44.62;;
46584;Laerm;32309;48.858;8.252;2023-04-07T01:29:37;41.72;38.37;44.47;;
46584;Laerm;32309;48.858;8.252;2023-04-07T01:31:40;41.03;36.91;43.94;;
46584;Laerm;32309;48.858;8.252;2023-04-07T01:33:43;40.38;36.20;42.98;;
46584;Laerm;32309;48.858;8.252;2023-04-07T01:35:45;40.41;36.45;42.76;;
46584;Laerm;32309;48.858;8.252;2023-04-07T01:37:47;40.54;36.91;43.04;;
46584;Laerm;32309;48.858;8.252;2023-04-07T01:39:49;40.82;37.12;43.68;;
46584;Laerm;32309;48.858;8.252;2023-04-07T01:41:50;41.37;37.32;44.47;;
46584;Laerm;32309;48.858;8.252;2023-04-07T01:43:53;41.68;37.12;44.47;;
46584;Laerm;32309;48.858;8.252;2023-04-07T01:45:55;41.33;37.52;45.17;;
46584;Laerm;32309;48.858;8.252;2023-04-07T01:47:57;40.85;36.69;43.51;;
46584;Laerm;32309;48.858;8.252;2023-04-07T01:49:58;40.74;36.69;43.72;;
46584;Laerm;32309;48.858;8.252;2023-04-07T01:52:00;41.61;38.47;45.99;;
46584;Laerm;32309;48.858;8.252;2023-04-07T01:54:01;40.13;35.66;43.14;;
46584;Laerm;32309;48.858;8.252;2023-04-07T01:56:03;40.45;35.36;43.90;;
46584;Laerm;32309;48.858;8.252;2023-04-07T02:02:06;41.89;36.91;53.37;;
46584;Laerm;32309;48.858;8.252;2023-04-07T02:04:18;42.52;38.74;46.50;;
46584;Laerm;32309;48.858;8.252;2023-04-07T02:06:28;41.41;37.88;45.83;;
46584;Laerm;32309;48.858;8.252;2023-04-07T02:08:32;41.66;38.37;43.81;;
46584;Laerm;32309;48.858;8.252;2023-04-07T02:10:34;42.52;39.21;46.84;;
46584;Laerm;32309;48.858;8.252;2023-04-07T02:12:37;42.10;38.37;44.76;;
46584;Laerm;32309;48.858;8.252;2023-04-07T02:14:38;41.82;37.35;45.23;;
46584;Laerm;32309;48.858;8.252;2023-04-07T02:16:40;41.18;37.52;44.80;;
46584;Laerm;32309;48.858;8.252;2023-04-07T02:18:42;41.18;37.52;44.80;;
46584;Laerm;32309;48.858;8.252;2023-04-07T02:20:44;41.23;37.12;50.21;;
46584;Laerm;32309;48.858;8.252;2023-04-07T02:22:45;40.87;36.20;43.39;;
46584;Laerm;32309;48.858;8.252;2023-04-07T02:26:46;41.75;38.05;45.86;;
46584;Laerm;32309;48.858;8.252;2023-04-07T02:28:46;40.98;37.12;43.49;;
46584;Laerm;32309;48.858;8.252;2023-04-07T02:30:47;41.01;35.66;54.97;;
46584;Laerm;32309;48.858;8.252;2023-04-07T02:32:47;41.38;38.37;43.49;;
46584;Laerm;32309;48.858;8.252;2023-04-07T02:34:47;40.51;36.91;42.98;;
46584;Laerm;32309;48.858;8.252;2023-04-07T02:36:47;41.23;37.32;44.94;;
46584;Laerm;32309;48.858;8.252;2023-04-07T02:38:48;41.67;38.67;50.24;;
46584;Laerm;32309;48.858;8.252;2023-04-07T02:40:48;41.26;38.21;44.15;;
46584;Laerm;32309;48.858;8.252;2023-04-07T02:42:48;42.24;38.67;48.87;;
46584;Laerm;32309;48.858;8.252;2023-04-07T02:44:49;41.65;38.81;44.43;;
46584;Laerm;32309;48.858;8.252;2023-04-07T02:46:49;41.89;37.70;48.42;;
46584;Laerm;32309;48.858;8.252;2023-04-07T02:48:49;41.84;39.08;48.61;;
46584;Laerm;32309;48.858;8.252;2023-04-07T02:50:50;41.55;38.05;44.73;;
46584;Laerm;32309;48.858;8.252;2023-04-07T02:52:51;41.83;38.52;53.13;;
46584;Laerm;32309;48.858;8.252;2023-04-07T02:54:51;41.26;37.70;46.28;;
46584;Laerm;32309;48.858;8.252;2023-04-07T02:56:51;41.88;38.05;51.44;;
46584;Laerm;32309;48.858;8.252;2023-04-07T03:00:52;41.77;39.08;44.15;;
46584;Laerm;32309;48.858;8.252;2023-04-07T03:02:52;41.96;38.21;44.87;;
46584;Laerm;32309;48.858;8.252;2023-04-07T03:04:52;41.60;38.67;44.23;;
46584;Laerm;32309;48.858;8.252;2023-04-07T03:06:53;41.44;38.05;45.63;;
46584;Laerm;32309;48.858;8.252;2023-04-07T03:08:53;41.42;38.52;44.31;;
46584;Laerm;32309;48.858;8.252;2023-04-07T03:10:53;41.46;36.91;44.39;;
46584;Laerm;32309;48.858;8.252;2023-04-07T03:12:53;41.42;38.21;47.93;;
46584;Laerm;32309;48.858;8.252;2023-04-07T03:14:54;42.18;38.95;44.87;;
46584;Laerm;32309;48.858;8.252;2023-04-07T03:16:54;42.71;38.95;48.51;;
46584;Laerm;32309;48.858;8.252;2023-04-07T03:18:55;41.93;38.05;53.57;;
46584;Laerm;32309;48.858;8.252;2023-04-07T03:20:55;41.70;38.67;44.65;;
46584;Laerm;32309;48.858;8.252;2023-04-07T03:22:55;41.87;38.21;47.91;;
46584;Laerm;32309;48.858;8.252;2023-04-07T03:26:56;43.21;40.23;48.77;;
46584;Laerm;32309;48.858;8.252;2023-04-07T03:28:56;50.91;40.43;67.09;;
46584;Laerm;32309;48.858;8.252;2023-04-07T03:30:56;49.66;44.07;60.79;;
46584;Laerm;32309;48.858;8.252;2023-04-07T03:32:57;46.46;42.88;54.55;;
46584;Laerm;32309;48.858;8.252;2023-04-07T03:38:57;45.61;41.68;52.50;;
46584;Laerm;32309;48.858;8.252;2023-04-07T03:40:58;44.22;41.22;49.90;;
46584;Laerm;32309;48.858;8.252;2023-04-07T03:42:58;43.86;40.71;51.52;;
46584;Laerm;32309;48.858;8.252;2023-04-07T03:44:58;43.04;40.03;52.80;;
46584;Laerm;32309;48.858;8.252;2023-04-07T03:46:59;43.73;40.53;55.87;;
46584;Laerm;32309;48.858;8.252;2023-04-07T03:49:00;45.57;40.62;59.77;;
46584;Laerm;32309;48.858;8.252;2023-04-07T03:51:00;43.94;41.06;55.81;;
46584;Laerm;32309;48.858;8.252;2023-04-07T03:53:00;43.66;40.33;51.90;;
46584;Laerm;32309;48.858;8.252;2023-04-07T03:55:01;44.16;40.53;55.55;;
46584;Laerm;32309;48.858;8.252;2023-04-07T03:57:01;45.14;40.89;55.78;;
46584;Laerm;32309;48.858;8.252;2023-04-07T03:59:02;47.76;41.82;60.30;;
46584;Laerm;32309;48.858;8.252;2023-04-07T04:01:02;47.79;41.82;65.25;;
46584;Laerm;32309;48.858;8.252;2023-04-07T04:03:02;50.22;41.75;64.28;;
46584;Laerm;32309;48.858;8.252;2023-04-07T04:09:03;50.42;41.75;62.84;;
46584;Laerm;32309;48.858;8.252;2023-04-07T04:11:04;50.72;42.47;65.04;;
46584;Laerm;32309;48.858;8.252;2023-04-07T04:13:04;50.30;43.00;63.46;;
46584;Laerm;32309;48.858;8.252;2023-04-07T04:15:07;50.32;42.29;64.35;;
46584;Laerm;32309;48.858;8.252;2023-04-07T04:17:07;47.23;42.03;55.81;;
46584;Laerm;32309;48.858;8.252;2023-04-07T04:19:08;46.16;42.29;55.94;;
46584;Laerm;32309;48.858;8.252;2023-04-07T04:21:08;44.90;41.75;55.99;;
46584;Laerm;32309;48.858;8.252;2023-04-07T04:23:08;44.17;41.53;57.12;;
46584;Laerm;32309;48.858;8.252;2023-04-07T04:27:09;43.59;41.46;47.22;;
46584;Laerm;32309;48.858;8.252;2023-04-07T04:29:09;43.59;41.46;47.22;;
46584;Laerm;32309;48.858;8.252;2023-04-07T04:31:09;43.59;41.53;49.79;;
46584;Laerm;32309;48.858;8.252;2023-04-07T04:33:10;43.77;41.75;47.76;;
46584;Laerm;32309;48.858;8.252;2023-04-07T04:35:10;43.62;41.14;47.52;;
46584;Laerm;32309;48.858;8.252;2023-04-07T04:37:11;51.89;41.46;70.73;;
46584;Laerm;32309;48.858;8.252;2023-04-07T04:39:11;43.96;41.14;53.75;;
46584;Laerm;32309;48.858;8.252;2023-04-07T04:41:11;49.45;41.46;63.43;;
46584;Laerm;32309;48.858;8.252;2023-04-07T04:43:12;49.54;41.30;65.11;;
46584;Laerm;32309;48.858;8.252;2023-04-07T04:45:12;49.22;41.75;65.97;;
46584;Laerm;32309;48.858;8.252;2023-04-07T04:47:12;51.03;41.82;67.17;;
46584;Laerm;32309;48.858;8.252;2023-04-07T04:49:13;44.74;40.43;59.79;;
46584;Laerm;32309;48.858;8.252;2023-04-07T04:51:14;44.09;40.13;58.41;;
46584;Laerm;32309;48.858;8.252;2023-04-07T04:53:15;46.58;39.92;60.26;;
46584;Laerm;32309;48.858;8.252;2023-04-07T04:55:15;45.53;41.06;59.76;;
46584;Laerm;32309;48.858;8.252;2023-04-07T04:57:15;46.96;40.98;61.81;;
46584;Laerm;32309;48.858;8.252;2023-04-07T04:59:15;48.54;40.53;63.38;;
46584;Laerm;32309;48.858;8.252;2023-04-07T05:01:16;45.44;40.33;59.61;;
46584;Laerm;32309;48.858;8.252;2023-04-07T05:03:16;45.23;39.81;59.83;;
46584;Laerm;32309;48.858;8.252;2023-04-07T05:05:16;44.89;40.89;60.96;;
46584;Laerm;32309;48.858;8.252;2023-04-07T05:07:16;46.71;40.53;63.86;;
46584;Laerm;32309;48.858;8.252;2023-04-07T05:09:17;43.94;40.13;55.34;;
46584;Laerm;32309;48.858;8.252;2023-04-07T05:11:17;44.05;40.13;63.04;;
46584;Laerm;32309;48.858;8.252;2023-04-07T05:13:17;46.68;41.22;64.38;;
46584;Laerm;32309;48.858;8.252;2023-04-07T05:15:18;47.18;40.23;63.89;;
46584;Laerm;32309;48.858;8.252;2023-04-07T05:17:18;44.59;39.81;64.77;;
46584;Laerm;32309;48.858;8.252;2023-04-07T05:19:18;49.57;40.13;68.24;;
46584;Laerm;32309;48.858;8.252;2023-04-07T05:21:19;47.39;40.13;64.94;;
46584;Laerm;32309;48.858;8.252;2023-04-07T05:23:21;46.54;40.03;70.22;;
46584;Laerm;32309;48.858;8.252;2023-04-07T05:25:21;48.88;40.62;70.98;;
46584;Laerm;32309;48.858;8.252;2023-04-07T05:27:21;49.46;40.80;69.90;;
46584;Laerm;32309;48.858;8.252;2023-04-07T05:29:22;44.52;41.06;58.31;;
46584;Laerm;32309;48.858;8.252;2023-04-07T05:31:22;46.39;41.38;64.11;;
46584;Laerm;32309;48.858;8.252;2023-04-07T05:33:22;48.10;41.96;70.86;;
46584;Laerm;32309;48.858;8.252;2023-04-07T05:35:23;51.04;41.26;68.59;;
46584;Laerm;32309;48.858;8.252;2023-04-07T05:37:23;45.98;41.30;60.15;;
46584;Laerm;32309;48.858;8.252;2023-04-07T05:39:23;44.86;41.14;53.48;;
46584;Laerm;32309;48.858;8.252;2023-04-07T05:41:24;45.90;41.61;58.64;;
46584;Laerm;32309;48.858;8.252;2023-04-07T05:43:24;45.24;41.06;55.91;;
46584;Laerm;32309;48.858;8.252;2023-04-07T05:45:24;44.66;41.06;59.10;;
46584;Laerm;32309;48.858;8.252;2023-04-07T05:47:25;44.66;40.89;58.92;;
46584;Laerm;32309;48.858;8.252;2023-04-07T05:49:25;45.71;40.13;59.21;;
46584;Laerm;32309;48.858;8.252;2023-04-07T05:51:25;45.55;40.71;62.53;;
46584;Laerm;32309;48.858;8.252;2023-04-07T05:53:26;43.73;40.43;52.18;;
46584;Laerm;32309;48.858;8.252;2023-04-07T05:59:27;47.97;39.81;64.88;;
46584;Laerm;32309;48.858;8.252;2023-04-07T06:01:28;43.96;40.03;57.36;;
46584;Laerm;32309;48.858;8.252;2023-04-07T06:03:28;45.85;40.33;60.13;;
46584;Laerm;32309;48.858;8.252;2023-04-07T06:05:28;45.52;38.52;62.27;;
46584;Laerm;32309;48.858;8.252;2023-04-07T06:07:29;46.69;38.52;64.59;;
46584;Laerm;32309;48.858;8.252;2023-04-07T06:09:29;43.20;38.95;55.67;;
46584;Laerm;32309;48.858;8.252;2023-04-07T06:11:29;43.01;38.95;60.54;;
46584;Laerm;32309;48.858;8.252;2023-04-07T06:13:30;43.60;39.58;54.79;;
46584;Laerm;32309;48.858;8.252;2023-04-07T06:15:30;42.80;39.46;50.31;;
46584;Laerm;32309;48.858;8.252;2023-04-07T06:19:31;42.49;38.95;57.04;;
46584;Laerm;32309;48.858;8.252;2023-04-07T06:21:32;46.71;39.70;61.43;;
46584;Laerm;32309;48.858;8.252;2023-04-07T06:25:33;42.69;38.67;54.93;;
46584;Laerm;32309;48.858;8.252;2023-04-07T06:27:34;42.98;39.08;59.09;;
46584;Laerm;32309;48.858;8.252;2023-04-07T06:29:34;45.64;40.03;62.41;;
46584;Laerm;32309;48.858;8.252;2023-04-07T06:31:36;43.50;40.53;55.26;;
46584;Laerm;32309;48.858;8.252;2023-04-07T06:33:37;43.32;38.52;53.93;;
46584;Laerm;32309;48.858;8.252;2023-04-07T06:35:38;43.35;40.53;55.63;;
46584;Laerm;32309;48.858;8.252;2023-04-07T06:37:39;42.71;39.81;53.19;;
46584;Laerm;32309;48.858;8.252;2023-04-07T06:41:39;43.72;39.34;56.00;;
46584;Laerm;32309;48.858;8.252;2023-04-07T06:43:47;44.76;39.81;58.66;;
46584;Laerm;32309;48.858;8.252;2023-04-07T06:47:48;42.58;39.58;51.75;;
46584;Laerm;32309;48.858;8.252;2023-04-07T06:49:48;42.38;39.78;47.22;;
46584;Laerm;32309;48.858;8.252;2023-04-07T06:51:49;42.86;39.70;49.89;;
46584;Laerm;32309;48.858;8.252;2023-04-07T06:53:49;44.87;40.03;63.33;;
46584;Laerm;32309;48.858;8.252;2023-04-07T06:55:49;44.96;39.99;60.42;;
46584;Laerm;32309;48.858;8.252;2023-04-07T06:57:50;52.62;41.14;70.92;;
46584;Laerm;32309;48.858;8.252;2023-04-07T06:59:51;44.97;40.33;66.26;;
46584;Laerm;32309;48.858;8.252;2023-04-07T07:01:51;43.65;40.62;54.87;;
46584;Laerm;32309;48.858;8.252;2023-04-07T07:03:51;42.76;40.53;50.63;;
46584;Laerm;32309;48.858;8.252;2023-04-07T07:05:54;47.41;41.03;66.22;;
46584;Laerm;32309;48.858;8.252;2023-04-07T07:07:58;44.76;41.61;57.89;;
46584;Laerm;32309;48.858;8.252;2023-04-07T07:09:58;44.79;40.23;58.57;;
46584;Laerm;32309;48.858;8.252;2023-04-07T07:14:01;45.96;40.98;57.59;;
46584;Laerm;32309;48.858;8.252;2023-04-07T07:16:01;44.55;41.38;59.77;;
46584;Laerm;32309;48.858;8.252;2023-04-07T07:18:01;45.14;41.68;56.85;;
46584;Laerm;32309;48.858;8.252;2023-04-07T07:20:02;45.40;42.09;59.92;;
46584;Laerm;32309;48.858;8.252;2023-04-07T07:22:02;45.22;41.89;59.00;;
46584;Laerm;32309;48.858;8.252;2023-04-07T07:24:03;46.46;41.46;59.33;;
46584;Laerm;32309;48.858;8.252;2023-04-07T07:26:35;45.08;41.96;57.73;;
46584;Laerm;32309;48.858;8.252;2023-04-07T07:28:39;46.18;42.16;61.15;;
46584;Laerm;32309;48.858;8.252;2023-04-07T07:30:39;45.41;43.14;51.91;;
46584;Laerm;32309;48.858;8.252;2023-04-07T07:33:18;46.37;42.35;59.43;;
46584;Laerm;32309;48.858;8.252;2023-04-07T07:38:23;43.63;40.62;55.07;;
46584;Laerm;32309;48.858;8.252;2023-04-07T07:40:51;43.86;40.89;53.89;;
46584;Laerm;32309;48.858;8.252;2023-04-07T07:46:56;42.86;40.23;53.13;;
46584;Laerm;32309;48.858;8.252;2023-04-07T07:48:57;43.12;40.36;52.03;;
46584;Laerm;32309;48.858;8.252;2023-04-07T13:23:56;42.92;39.81;51.65;;
46584;Laerm;32309;48.858;8.252;2023-04-07T13:27:57;47.65;40.98;66.24;;
46584;Laerm;32309;48.858;8.252;2023-04-07T13:29:58;43.69;39.92;55.30;;
46584;Laerm;32309;48.858;8.252;2023-04-07T13:32:06;43.30;40.13;54.24;;
46584;Laerm;32309;48.858;8.252;2023-04-07T13:34:06;43.17;40.98;54.79;;
46584;Laerm;32309;48.858;8.252;2023-04-07T13:36:07;43.19;40.80;50.78;;
46584;Laerm;32309;48.858;8.252;2023-04-07T13:38:07;44.21;40.98;52.86;;
46584;Laerm;32309;48.858;8.252;2023-04-07T13:40:08;44.63;41.61;52.50;;
46584;Laerm;32309;48.858;8.252;2023-04-07T13:42:08;45.33;41.30;57.66;;
46584;Laerm;32309;48.858;8.252;2023-04-07T13:44:09;43.96;40.98;51.74;;
46584;Laerm;32309;48.858;8.252;2023-04-07T13:46:12;45.48;42.76;69.32;;
46584;Laerm;32309;48.858;8.252;2023-04-07T13:48:14;46.22;43.19;55.76;;
46584;Laerm;32309;48.858;8.252;2023-04-07T13:50:14;44.96;42.65;58.45;;
46584;Laerm;32309;48.858;8.252;2023-04-07T13:52:15;47.63;43.44;54.98;;
46584;Laerm;32309;48.858;8.252;2023-04-07T13:54:16;48.56;44.97;55.12;;
46584;Laerm;32309;48.858;8.252;2023-04-07T13:56:17;49.18;45.45;58.13;;
46584;Laerm;32309;48.858;8.252;2023-04-07T13:58:17;51.48;45.97;64.31;;
46584;Laerm;32309;48.858;8.252;2023-04-07T14:00:18;51.35;46.80;61.40;;
46584;Laerm;32309;48.858;8.252;2023-04-07T14:02:18;51.23;47.14;59.34;;
46584;Laerm;32309;48.858;8.252;2023-04-07T14:08:23;52.05;48.23;60.15;;
46584;Laerm;32309;48.858;8.252;2023-04-07T14:10:23;50.28;46.18;58.30;;
46584;Laerm;32309;48.858;8.252;2023-04-07T14:12:23;51.32;46.93;57.49;;
46584;Laerm;32309;48.858;8.252;2023-04-07T14:16:24;51.42;46.52;62.04;;
46584;Laerm;32309;48.858;8.252;2023-04-07T14:18:24;51.03;46.23;61.13;;
46584;Laerm;32309;48.858;8.252;2023-04-07T14:20:26;53.06;48.42;62.74;;
46584;Laerm;32309;48.858;8.252;2023-04-07T14:22:27;52.57;48.54;65.32;;
46584;Laerm;32309;48.858;8.252;2023-04-07T14:24:27;52.55;48.26;61.07;;
46584;Laerm;32309;48.858;8.252;2023-04-07T14:26:30;52.98;49.44;60.45;;
46584;Laerm;32309;48.858;8.252;2023-04-07T14:28:30;52.94;47.38;78.43;;
46584;Laerm;32309;48.858;8.252;2023-04-07T14:30:35;52.91;47.14;61.63;;
46584;Laerm;32309;48.858;8.252;2023-04-07T14:32:37;55.55;49.23;73.16;;
46584;Laerm;32309;48.858;8.252;2023-04-07T14:34:38;55.72;47.70;67.47;;
46584;Laerm;32309;48.858;8.252;2023-04-07T14:36:38;52.88;47.54;61.02;;
46584;Laerm;32309;48.858;8.252;2023-04-07T14:38:38;53.66;49.52;58.58;;
46584;Laerm;32309;48.858;8.252;2023-04-07T14:40:39;52.73;46.95;58.06;;
46584;Laerm;32309;48.858;8.252;2023-04-07T14:42:40;53.22;48.99;59.84;;
46584;Laerm;32309;48.858;8.252;2023-04-07T14:44:40;52.35;47.00;57.10;;
46584;Laerm;32309;48.858;8.252;2023-04-07T14:46:41;51.96;48.08;56.16;;
46584;Laerm;32309;48.858;8.252;2023-04-07T14:48:43;53.04;48.16;59.07;;
46584;Laerm;32309;48.858;8.252;2023-04-07T14:50:45;52.21;47.72;58.50;;
46584;Laerm;32309;48.858;8.252;2023-04-07T14:52:45;51.76;47.57;59.18;;
46584;Laerm;32309;48.858;8.252;2023-04-07T14:56:46;50.44;47.00;55.79;;
46584;Laerm;32309;48.858;8.252;2023-04-07T14:58:46;51.28;47.76;58.78;;
46584;Laerm;32309;48.858;8.252;2023-04-07T15:00:46;51.71;46.82;57.36;;
46584;Laerm;32309;48.858;8.252;2023-04-07T15:02:47;53.26;47.98;66.64;;
46584;Laerm;32309;48.858;8.252;2023-04-07T15:04:47;59.28;48.00;75.47;;
46584;Laerm;32309;48.858;8.252;2023-04-07T15:06:47;59.20;48.42;73.49;;
46584;Laerm;32309;48.858;8.252;2023-04-07T15:08:47;57.32;47.00;71.48;;
46584;Laerm;32309;48.858;8.252;2023-04-07T15:10:48;55.95;48.13;69.62;;
46584;Laerm;32309;48.858;8.252;2023-04-07T15:12:48;56.29;49.36;69.47;;
46584;Laerm;32309;48.858;8.252;2023-04-07T15:16:58;55.21;47.40;70.14;;
46584;Laerm;32309;48.858;8.252;2023-04-07T15:18:58;52.46;48.61;58.44;;
46584;Laerm;32309;48.858;8.252;2023-04-07T15:21:00;56.53;47.77;70.71;;
46584;Laerm;32309;48.858;8.252;2023-04-07T15:23:00;57.52;47.99;71.82;;
46584;Laerm;32309;48.858;8.252;2023-04-07T15:25:01;55.59;47.20;67.48;;
46584;Laerm;32309;48.858;8.252;2023-04-07T15:27:04;54.26;46.95;68.77;;
46584;Laerm;32309;48.858;8.252;2023-04-07T15:29:05;52.16;47.42;56.62;;
46584;Laerm;32309;48.858;8.252;2023-04-07T15:31:05;51.17;45.69;66.95;;
46584;Laerm;32309;48.858;8.252;2023-04-07T15:33:11;52.33;46.95;58.73;;
46584;Laerm;32309;48.858;8.252;2023-04-07T15:35:11;51.81;45.27;65.15;;
46584;Laerm;32309;48.858;8.252;2023-04-07T15:37:12;51.83;46.45;63.30;;
46584;Laerm;32309;48.858;8.252;2023-04-07T15:39:13;51.02;45.69;61.75;;
46584;Laerm;32309;48.858;8.252;2023-04-07T15:41:14;51.56;46.91;58.23;;
46584;Laerm;32309;48.858;8.252;2023-04-07T15:43:15;51.40;46.80;61.90;;
46584;Laerm;32309;48.858;8.252;2023-04-07T15:45:15;52.13;48.07;59.73;;
46584;Laerm;32309;48.858;8.252;2023-04-07T15:49:16;51.92;47.32;63.20;;
46584;Laerm;32309;48.858;8.252;2023-04-07T15:51:36;53.66;47.22;72.22;;
46584;Laerm;32309;48.858;8.252;2023-04-07T15:53:36;53.67;47.22;74.99;;
46584;Laerm;32309;48.858;8.252;2023-04-07T15:55:36;50.81;45.42;56.15;;
46584;Laerm;32309;48.858;8.252;2023-04-07T15:57:37;51.92;46.78;70.20;;
46584;Laerm;32309;48.858;8.252;2023-04-07T15:59:37;54.32;47.52;76.24;;
46584;Laerm;32309;48.858;8.252;2023-04-07T16:01:37;54.00;48.43;71.66;;
46584;Laerm;32309;48.858;8.252;2023-04-07T16:03:37;52.85;47.28;70.26;;
46584;Laerm;32309;48.858;8.252;2023-04-07T16:05:38;53.02;47.84;62.67;;
46584;Laerm;32309;48.858;8.252;2023-04-07T16:07:38;52.14;48.34;69.07;;
46584;Laerm;32309;48.858;8.252;2023-04-07T16:09:38;52.14;48.34;69.07;;
46584;Laerm;32309;48.858;8.252;2023-04-07T16:11:39;53.58;48.77;60.44;;
46584;Laerm;32309;48.858;8.252;2023-04-07T16:13:39;52.87;47.48;61.17;;
46584;Laerm;32309;48.858;8.252;2023-04-07T16:15:40;51.90;47.67;58.03;;
46584;Laerm;32309;48.858;8.252;2023-04-07T16:17:45;51.20;45.86;55.92;;
46584;Laerm;32309;48.858;8.252;2023-04-07T16:19:45;52.33;47.00;58.75;;
46584;Laerm;32309;48.858;8.252;2023-04-07T16:21:46;51.60;47.72;56.94;;
46584;Laerm;32309;48.858;8.252;2023-04-07T16:23:46;52.47;45.57;65.27;;
46584;Laerm;32309;48.858;8.252;2023-04-07T16:25:46;52.52;47.08;69.39;;
46584;Laerm;32309;48.858;8.252;2023-04-07T16:27:47;52.56;46.59;63.66;;
46584;Laerm;32309;48.858;8.252;2023-04-07T16:29:47;51.54;46.66;60.41;;
46584;Laerm;32309;48.858;8.252;2023-04-07T16:31:47;53.28;47.65;71.84;;
46584;Laerm;32309;48.858;8.252;2023-04-07T16:33:50;51.60;47.96;57.17;;
46584;Laerm;32309;48.858;8.252;2023-04-07T16:35:51;53.23;47.42;75.98;;
46584;Laerm;32309;48.858;8.252;2023-04-07T16:37:51;51.41;45.20;64.56;;
46584;Laerm;32309;48.858;8.252;2023-04-07T16:39:54;50.60;45.33;62.81;;
46584;Laerm;32309;48.858;8.252;2023-04-07T16:43:55;53.91;43.81;66.00;;
46584;Laerm;32309;48.858;8.252;2023-04-07T16:45:56;51.01;42.59;63.60;;
46584;Laerm;32309;48.858;8.252;2023-04-07T16:47:58;51.00;42.47;62.20;;
46584;Laerm;32309;48.858;8.252;2023-04-07T16:49:59;46.74;42.41;58.63;;
46584;Laerm;32309;48.858;8.252;2023-04-07T16:51:59;48.18;43.49;59.85;;
46584;Laerm;32309;48.858;8.252;2023-04-07T16:56:00;49.40;42.47;61.91;;
46584;Laerm;32309;48.858;8.252;2023-04-07T16:58:00;46.31;42.47;63.23;;
46584;Laerm;32309;48.858;8.252;2023-04-07T17:00:00;49.91;42.82;69.62;;
46584;Laerm;32309;48.858;8.252;2023-04-07T17:02:08;46.02;42.82;55.08;;
46584;Laerm;32309;48.858;8.252;2023-04-07T17:04:10;50.21;42.88;66.10;;
46584;Laerm;32309;48.858;8.252;2023-04-07T17:08:10;46.17;41.38;58.64;;
46584;Laerm;32309;48.858;8.252;2023-04-07T17:10:11;49.41;41.53;62.58;;
46584;Laerm;32309;48.858;8.252;2023-04-07T17:12:13;48.28;42.03;61.76;;
46584;Laerm;32309;48.858;8.252;2023-04-07T17:14:13;47.76;42.09;60.91;;
46584;Laerm;32309;48.858;8.252;2023-04-07T17:16:13;49.80;42.71;63.12;;
46584;Laerm;32309;48.858;8.252;2023-04-07T17:18:13;46.15;42.22;56.40;;
46584;Laerm;32309;48.858;8.252;2023-04-07T17:20:14;46.09;43.49;51.67;;
46584;Laerm;32309;48.858;8.252;2023-04-07T17:24:16;45.87;42.59;56.29;;
46584;Laerm;32309;48.858;8.252;2023-04-07T17:26:17;825.21;0.00;18494647683753925093697034753859.04;;
46584;Laerm;32309;48.858;8.252;2023-04-07T17:28:17;45.18;42.82;54.65;;
46584;Laerm;32309;48.858;8.252;2023-04-07T17:30:17;45.90;42.93;53.39;;
46584;Laerm;32309;48.858;8.252;2023-04-07T17:32:18;45.40;42.88;52.36;;
46584;Laerm;32309;48.858;8.252;2023-04-07T17:36:18;45.42;41.75;57.52;;
46584;Laerm;32309;48.858;8.252;2023-04-07T17:38:18;47.05;42.65;61.09;;
46584;Laerm;32309;48.858;8.252;2023-04-07T17:40:19;49.15;43.09;64.52;;
46584;Laerm;32309;48.858;8.252;2023-04-07T17:42:19;46.46;43.34;53.99;;
46584;Laerm;32309;48.858;8.252;2023-04-07T17:44:20;45.32;42.53;50.91;;
46584;Laerm;32309;48.858;8.252;2023-04-07T17:46:20;45.29;41.75;50.37;;
46584;Laerm;32309;48.858;8.252;2023-04-07T17:51:03;50.71;41.68;72.88;;
46584;Laerm;32309;48.858;8.252;2023-04-07T17:53:03;53.60;42.16;75.29;;
46584;Laerm;32309;48.858;8.252;2023-04-07T17:55:04;44.51;41.38;58.23;;
46584;Laerm;32309;48.858;8.252;2023-04-07T17:59:06;43.59;41.06;56.92;;
46584;Laerm;32309;48.858;8.252;2023-04-07T18:01:09;42.82;40.03;49.23;;
46584;Laerm;32309;48.858;8.252;2023-04-07T18:03:09;42.40;38.95;50.08;;
46584;Laerm;32309;48.858;8.252;2023-04-07T18:05:10;44.27;39.34;56.53;;
46584;Laerm;32309;48.858;8.252;2023-04-07T18:07:10;42.66;40.13;50.66;;
46584;Laerm;32309;48.858;8.252;2023-04-07T18:11:13;43.33;40.53;51.46;;
46584;Laerm;32309;48.858;8.252;2023-04-07T18:13:13;42.90;40.03;55.92;;
46584;Laerm;32309;48.858;8.252;2023-04-07T18:15:14;42.90;40.03;55.92;;
46584;Laerm;32309;48.858;8.252;2023-04-07T18:17:15;45.02;39.34;60.11;;
46584;Laerm;32309;48.858;8.252;2023-04-07T18:19:15;44.13;40.62;53.46;;
46584;Laerm;32309;48.858;8.252;2023-04-07T18:21:16;44.33;40.23;55.91;;
46584;Laerm;32309;48.858;8.252;2023-04-07T18:23:16;42.64;39.34;54.61;;
46584;Laerm;32309;48.858;8.252;2023-04-07T18:25:17;43.14;39.46;53.70;;